Saxeville, Wisconsin
Current Conditions -  °F | °C
As of 6:15 AM on Friday 28 Nov 2014 (Local Time) from KPCZ Reporting Station
Light Snow Light Snow  
Wind Chill: 11°   Ceiling: 5000
Heat Index: 11°   Visibility: 7mi
Dew Point:   Wind: 0mph
Humidity: 79%   Direction: NA
Pressure: 30.23"   Gusts: NA
Location:  44.18°N, 89.11°W
Report Text: KPCZ 281215Z AUTO 00000KT 7SM -SN SCT042 OVC050 M12/M15 A3023 RMK AO2 T11171147
Loading
Personal Weather Stations






























Interactive Weather Map New forecast layout! Learn more

10-Day Weather Forecast

Advertisements
Track Severe Weather on mobile